Seaway II — ZMR3466 — position and weather

sailwx.info

Track history (hours):
 
Tides and Currents Weather Stations Pressure Air Temp Water Temp Dewpoint Dewpoint Depression Visibility Wind Speed Wind Dir Waves Ship Positions

Seaway II

Last reported at 2015-Aug-04 06:34 UTC. Time now 2015-Aug-04 07:27 UTC.
Position S 36°51' E 174°54'.

Length 37 m.

Type: Passenger vessel. MMSI: 512001026.

Date/timePositionNaut miles runAvg speedWind from/ knotsBaromVisibWave heightAir tempDewpointWater temp
2015-Aug-04 06:34S 36°51' E 174°54'2 2.5
2015-Aug-04 05:33S 36°50' E 174°56'1 0.3
2015-Aug-04 02:33S 36°50' E 174°58'1 0.2
2015-Aug-03 22:33S 36°50' E 174°59'5 2.3
2015-Aug-03 20:33S 36°51' E 174°54'4 3.8
2015-Aug-03 19:33S 36°50' E 174°58'2 1.8
2015-Aug-03 18:31S 36°50' E 174°56'1 1.2
2015-Aug-03 17:33S 36°49' E 174°54'4 1.6
2015-Aug-03 15:25S 36°53' E 174°54'0 0.0
2015-Aug-03 14:31S 36°53' E 174°54'0 0.0
2015-Aug-03 11:31S 36°53' E 174°54'0 0.0
2015-Aug-03 09:25S 36°53' E 174°54'0 0.0
2015-Aug-03 08:31S 36°53' E 174°54'1 0.7
2015-Aug-03 06:33S 36°51' E 174°54'3 3.3
2015-Aug-03 05:33S 36°50' E 174°57'3 1.1
2015-Aug-03 02:28S 36°52' E 174°54'4 1.9
2015-Aug-03 00:33S 36°50' E 174°58'4 2.7
2015-Aug-02 23:13S 36°52' E 174°54'3 1.6
2015-Aug-02 21:33S 36°50' E 174°56'3 2.6
2015-Aug-02 20:33S 36°51' E 174°54'4 4.4
2015-Aug-02 19:33S 36°50' E 174°59'1 0.5
2015-Aug-02 17:33S 36°50' E 174°57'3 3.4
2015-Aug-02 16:33S 36°52' E 174°54'  
2015-Jul-31 11:24S 36°50' E 174°45'0 0.0
2015-Jul-31 09:28S 36°50' E 174°45'0 0.0
2015-Jul-31 08:10S 36°50' E 174°45'7 4.1
2015-Jul-31 06:33S 36°52' E 174°54'4 3.6
2015-Jul-31 05:31S 36°50' E 174°58'4 1.2
2015-Jul-31 02:17S 36°52' E 174°54'3 1.5
2015-Jul-31 00:26S 36°50' E 174°53'3 2.4
2015-Jul-30 23:17S 36°52' E 174°54'4 2.4
2015-Jul-30 21:33S 36°50' E 174°58'4 4.1
2015-Jul-30 20:33S 36°51' E 174°54'4 4.3
2015-Jul-30 19:33S 36°50' E 174°58'4 4.3
2015-Jul-30 18:33S 36°51' E 174°54'4 4.1
2015-Jul-30 17:33S 36°50' E 174°58'5 4.2
2015-Jul-30 16:27S 36°53' E 174°54'0 0.0
2015-Jul-30 11:27S 36°53' E 174°54'0 0.0
2015-Jul-30 08:14S 36°53' E 174°54'2 1.0
2015-Jul-30 06:33S 36°51' E 174°53'4 4.4
2015-Jul-30 05:33S 36°50' E 174°59'4 0.5
2015-Jul-29 20:33S 36°51' E 174°53'4 3.9
2015-Jul-29 19:33S 36°50' E 174°58'4 3.9
2015-Jul-29 18:33S 36°51' E 174°54'4 4.4
2015-Jul-29 17:33S 36°50' E 174°59'5 5.0
2015-Jul-29 16:34S 36°53' E 174°54'0 0.0
2015-Jul-29 14:30S 36°53' E 174°54'0 0.0
2015-Jul-29 13:06S 36°53' E 174°54'0 0.1
2015-Jul-29 12:33S 36°53' E 174°54'0 0.0
2015-Jul-29 07:06S 36°53' E 174°54'2 2.9
2015-Jul-29 06:33S 36°51' E 174°54'5 4.6
2015-Jul-29 05:33S 36°50' E 174°59'5 1.4
2015-Jul-29 02:18S 36°52' E 174°54'1 0.8
2015-Jul-29 00:27S 36°51' E 174°54'2 1.3
2015-Jul-28 23:15S 36°52' E 174°54'1 0.5
2015-Jul-28 20:33S 36°51' E 174°54'4 3.6
2015-Jul-28 19:33S 36°50' E 174°58'4 3.6
2015-Jul-28 18:33S 36°51' E 174°54'4 3.8
2015-Jul-28 17:33S 36°50' E 174°58'4 0.4
2015-Jul-28 06:33S 36°51' E 174°54'4 3.9
2015-Jul-28 05:32S 36°50' E 174°58'4 2.0
2015-Jul-28 03:33S 36°51' E 174°53'4 3.7
2015-Jul-28 02:33S 36°50' E 174°58'4 3.9
2015-Jul-28 01:28S 36°53' E 174°54'0 0.0
2015-Jul-28 00:31S 36°53' E 174°54'4 2.0
2015-Jul-27 22:33S 36°50' E 174°57'4 3.6
2015-Jul-27 21:28S 36°53' E 174°54'2 2.2
2015-Jul-27 20:34S 36°51' E 174°54'4 3.8
2015-Jul-27 19:34S 36°50' E 174°58'0 0.2
2015-Jul-27 17:33S 36°50' E 174°58'5 4.4
2015-Jul-27 16:28S 36°53' E 174°54'0 0.0
2015-Jul-27 14:30S 36°53' E 174°54'0 0.0
2015-Jul-27 13:30S 36°53' E 174°54'0 0.0
2015-Jul-27 12:31S 36°53' E 174°54'0 0.0
2015-Jul-27 11:24S 36°53' E 174°54'0 0.0
2015-Jul-27 10:24S 36°53' E 174°54'0 0.0
2015-Jul-27 07:30S 36°53' E 174°54'2 1.7
2015-Jul-27 06:33S 36°51' E 174°53'4 3.9
2015-Jul-27 05:33S 36°50' E 174°58'4 1.2
2015-Jul-27 02:12S 36°52' E 174°54'3 1.9
2015-Jul-27 00:33S 36°51' E 174°57'3 2.3
2015-Jul-26 23:12S 36°52' E 174°54'2 0.4
2015-Jul-26 19:25S 36°51' E 174°54'1 0.6
2015-Jul-26 18:33S 36°51' E 174°54'4 3.9
2015-Jul-26 17:32S 36°50' E 174°58'5 4.7
2015-Jul-26 16:32S 36°53' E 174°54'  
Track history (hours):
 
Tides and Currents Weather Stations Pressure Air Temp Water Temp Dewpoint Dewpoint Depression Visibility Wind Speed Wind Dir Waves Ship Positions

Seaway II

Last reported at 2015-Aug-04 06:34 UTC. Time now 2015-Aug-04 07:27 UTC.
Position S 36°51' E 174°54'.

Length 37 m.

Type: Passenger vessel. MMSI: 512001026.

Date/timePositionNaut miles runAvg speedWind from/ knotsBaromVisibWave heightAir tempDewpointWater temp
2015-Aug-04 06:34S 36°51' E 174°54'2 2.5
2015-Aug-04 05:33S 36°50' E 174°56'1 0.3
2015-Aug-04 02:33S 36°50' E 174°58'1 0.2
2015-Aug-03 22:33S 36°50' E 174°59'5 2.3
2015-Aug-03 20:33S 36°51' E 174°54'4 3.8
2015-Aug-03 19:33S 36°50' E 174°58'2 1.8
2015-Aug-03 18:31S 36°50' E 174°56'1 1.2
2015-Aug-03 17:33S 36°49' E 174°54'4 1.6
2015-Aug-03 15:25S 36°53' E 174°54'0 0.0
2015-Aug-03 14:31S 36°53' E 174°54'0 0.0
2015-Aug-03 11:31S 36°53' E 174°54'0 0.0
2015-Aug-03 09:25S 36°53' E 174°54'0 0.0
2015-Aug-03 08:31S 36°53' E 174°54'1 0.7
2015-Aug-03 06:33S 36°51' E 174°54'3 3.3
2015-Aug-03 05:33S 36°50' E 174°57'3 1.1
2015-Aug-03 02:28S 36°52' E 174°54'4 1.9
2015-Aug-03 00:33S 36°50' E 174°58'4 2.7
2015-Aug-02 23:13S 36°52' E 174°54'3 1.6
2015-Aug-02 21:33S 36°50' E 174°56'3 2.6
2015-Aug-02 20:33S 36°51' E 174°54'4 4.4
2015-Aug-02 19:33S 36°50' E 174°59'1 0.5
2015-Aug-02 17:33S 36°50' E 174°57'3 3.4
2015-Aug-02 16:33S 36°52' E 174°54'  
2015-Jul-31 11:24S 36°50' E 174°45'0 0.0
2015-Jul-31 09:28S 36°50' E 174°45'0 0.0
2015-Jul-31 08:10S 36°50' E 174°45'7 4.1
2015-Jul-31 06:33S 36°52' E 174°54'4 3.6
2015-Jul-31 05:31S 36°50' E 174°58'4 1.2
2015-Jul-31 02:17S 36°52' E 174°54'3 1.5
2015-Jul-31 00:26S 36°50' E 174°53'3 2.4
2015-Jul-30 23:17S 36°52' E 174°54'4 2.4
2015-Jul-30 21:33S 36°50' E 174°58'4 4.1
2015-Jul-30 20:33S 36°51' E 174°54'4 4.3
2015-Jul-30 19:33S 36°50' E 174°58'4 4.3
2015-Jul-30 18:33S 36°51' E 174°54'4 4.1
2015-Jul-30 17:33S 36°50' E 174°58'5 4.2
2015-Jul-30 16:27S 36°53' E 174°54'0 0.0
2015-Jul-30 11:27S 36°53' E 174°54'0 0.0
2015-Jul-30 08:14S 36°53' E 174°54'2 1.0
2015-Jul-30 06:33S 36°51' E 174°53'4 4.4
2015-Jul-30 05:33S 36°50' E 174°59'4 0.5
2015-Jul-29 20:33S 36°51' E 174°53'4 3.9
2015-Jul-29 19:33S 36°50' E 174°58'4 3.9
2015-Jul-29 18:33S 36°51' E 174°54'4 4.4
2015-Jul-29 17:33S 36°50' E 174°59'5 5.0
2015-Jul-29 16:34S 36°53' E 174°54'0 0.0
2015-Jul-29 14:30S 36°53' E 174°54'0 0.0
2015-Jul-29 13:06S 36°53' E 174°54'0 0.1
2015-Jul-29 12:33S 36°53' E 174°54'0 0.0
2015-Jul-29 07:06S 36°53' E 174°54'2 2.9
2015-Jul-29 06:33S 36°51' E 174°54'5 4.6
2015-Jul-29 05:33S 36°50' E 174°59'5 1.4
2015-Jul-29 02:18S 36°52' E 174°54'1 0.8
2015-Jul-29 00:27S 36°51' E 174°54'2 1.3
2015-Jul-28 23:15S 36°52' E 174°54'1 0.5
2015-Jul-28 20:33S 36°51' E 174°54'4 3.6
2015-Jul-28 19:33S 36°50' E 174°58'4 3.6
2015-Jul-28 18:33S 36°51' E 174°54'4 3.8
2015-Jul-28 17:33S 36°50' E 174°58'4 0.4
2015-Jul-28 06:33S 36°51' E 174°54'4 3.9
2015-Jul-28 05:32S 36°50' E 174°58'4 2.0
2015-Jul-28 03:33S 36°51' E 174°53'4 3.7
2015-Jul-28 02:33S 36°50' E 174°58'4 3.9
2015-Jul-28 01:28S 36°53' E 174°54'0 0.0
2015-Jul-28 00:31S 36°53' E 174°54'4 2.0
2015-Jul-27 22:33S 36°50' E 174°57'4 3.6
2015-Jul-27 21:28S 36°53' E 174°54'2 2.2
2015-Jul-27 20:34S 36°51' E 174°54'4 3.8
2015-Jul-27 19:34S 36°50' E 174°58'0 0.2
2015-Jul-27 17:33S 36°50' E 174°58'5 4.4
2015-Jul-27 16:28S 36°53' E 174°54'0 0.0
2015-Jul-27 14:30S 36°53' E 174°54'0 0.0
2015-Jul-27 13:30S 36°53' E 174°54'0 0.0
2015-Jul-27 12:31S 36°53' E 174°54'0 0.0
2015-Jul-27 11:24S 36°53' E 174°54'0 0.0
2015-Jul-27 10:24S 36°53' E 174°54'0 0.0
2015-Jul-27 07:30S 36°53' E 174°54'2 1.7
2015-Jul-27 06:33S 36°51' E 174°53'4 3.9
2015-Jul-27 05:33S 36°50' E 174°58'4 1.2
2015-Jul-27 02:12S 36°52' E 174°54'3 1.9
2015-Jul-27 00:33S 36°51' E 174°57'3 2.3
2015-Jul-26 23:12S 36°52' E 174°54'2 0.4
2015-Jul-26 19:25S 36°51' E 174°54'1 0.6
2015-Jul-26 18:33S 36°51' E 174°54'4 3.9
2015-Jul-26 17:32S 36°50' E 174°58'5 4.7
2015-Jul-26 16:32S 36°53' E 174°54'  

Dump ship's entire track history